Time;durP1;ratioP1;P1;durP2;ratioP2;P2;SDS_P1;SDS_P2;PMS_P1;PMS_P2;Temp;Humidity;BMP_temperature;BMP_pressure;BME280_temperature;BME280_humidity;BME280_pressure;Samples;Min_cycle;Max_cycle;Signal;HPM_P1;HPM_P2
2023/08/09 00:00:08;;;;;;;3.90;2.20;;;;;;;;;;10379502;28;20978;-85
2023/08/09 00:05:09;;;;;;;5.47;2.70;;;;;;;;;;10377387;28;20054;-88
2023/08/09 00:10:16;;;;;;;3.10;2.45;;;;;;;;;;10392052;28;20060;-87
2023/08/09 00:15:18;;;;;;;5.55;2.80;;;;;;;;;;10378522;28;20082;-88
2023/08/09 00:20:20;;;;;;;3.70;2.90;;;;;;;;;;10364013;28;20045;-84
2023/08/09 00:25:22;;;;;;;5.68;3.08;;;;;;;;;;10375292;28;20136;-85
2023/08/09 00:30:24;;;;;;;3.92;3.25;;;;;;;;;;10380102;28;20048;-87
2023/08/09 00:35:30;;;;;;;4.07;3.65;;;;;;;;;;10385851;28;20025;-89
2023/08/09 00:40:36;;;;;;;4.97;3.70;;;;;;;;;;10395004;28;20084;-87
2023/08/09 00:45:40;;;;;;;6.00;3.95;;;;;;;;;;10410025;28;20068;-90
2023/08/09 00:50:41;;;;;;;5.72;3.50;;;;;;;;;;10396085;28;20140;-88
2023/08/09 00:55:41;;;;;;;4.88;3.80;;;;;;;;;;10387564;28;20033;-91
2023/08/09 01:00:41;;;;;;;5.53;4.37;;;;;;;;;;10380269;28;20173;-89
2023/08/09 01:05:50;;;;;;;5.65;4.55;;;;;;;;;;10394343;28;20312;-89
2023/08/09 01:11:09;;;;;;;6.55;4.35;;;;;;;;;;10375103;28;20038;-88
2023/08/09 01:16:11;;;;;;;7.57;4.82;;;;;;;;;;10322681;28;20149;-90
2023/08/09 01:21:13;;;;;;;9.65;4.95;;;;;;;;;;10367464;28;20643;-88
2023/08/09 01:26:16;;;;;;;5.97;5.37;;;;;;;;;;10366935;28;20050;-90
2023/08/09 01:31:17;;;;;;;6.50;5.10;;;;;;;;;;10404020;28;20034;-90
2023/08/09 01:36:21;;;;;;;5.53;4.72;;;;;;;;;;10420719;28;20038;-89
2023/08/09 01:41:23;;;;;;;7.15;5.18;;;;;;;;;;10381434;28;20045;-89
2023/08/09 01:46:25;;;;;;;7.90;5.05;;;;;;;;;;10379501;28;20064;-89
2023/08/09 01:51:27;;;;;;;6.07;5.47;;;;;;;;;;10368833;28;20157;-88
2023/08/09 01:56:27;;;;;;;8.57;6.22;;;;;;;;;;10378217;28;20053;-89
2023/08/09 02:01:31;;;;;;;7.32;5.72;;;;;;;;;;10374565;28;20431;-87
2023/08/09 02:06:32;;;;;;;7.90;5.40;;;;;;;;;;10366748;28;20090;-89
2023/08/09 02:11:35;;;;;;;8.57;6.22;;;;;;;;;;10398649;28;20041;-87
2023/08/09 02:16:37;;;;;;;10.70;5.97;;;;;;;;;;10395140;28;20060;-86
2023/08/09 02:21:38;;;;;;;6.70;5.13;;;;;;;;;;10345098;28;20058;-86
2023/08/09 02:26:39;;;;;;;6.53;5.00;;;;;;;;;;10384374;28;20092;-87
2023/08/09 02:31:40;;;;;;;7.95;5.07;;;;;;;;;;10380717;28;20060;-89
2023/08/09 02:36:42;;;;;;;8.13;5.45;;;;;;;;;;10355875;28;20046;-89
2023/08/09 02:41:48;;;;;;;8.30;5.85;;;;;;;;;;10361778;28;20076;-94
2023/08/09 02:46:49;;;;;;;9.73;5.78;;;;;;;;;;10356715;28;20360;-87
2023/08/09 02:52:00;;;;;;;7.85;5.65;;;;;;;;;;10353168;28;20103;-88
2023/08/09 02:57:02;;;;;;;7.57;6.20;;;;;;;;;;10372692;28;20042;-87
2023/08/09 03:02:08;;;;;;;6.95;5.38;;;;;;;;;;10355633;28;20134;-88
2023/08/09 03:07:09;;;;;;;8.77;6.10;;;;;;;;;;10363096;28;20053;-87
2023/08/09 03:12:10;;;;;;;8.95;6.05;;;;;;;;;;10375014;28;20037;-92
2023/08/09 03:17:11;;;;;;;8.55;5.88;;;;;;;;;;10366097;28;20132;-86
2023/08/09 03:22:13;;;;;;;7.97;5.88;;;;;;;;;;10386248;28;20088;-87
2023/08/09 03:27:13;;;;;;;8.35;5.72;;;;;;;;;;10389638;28;20049;-88
2023/08/09 03:32:16;;;;;;;6.53;5.53;;;;;;;;;;10377707;28;20045;-88
2023/08/09 03:37:19;;;;;;;8.82;6.03;;;;;;;;;;10389419;28;20071;-88
2023/08/09 03:42:22;;;;;;;6.27;5.30;;;;;;;;;;10371722;28;20494;-88
2023/08/09 03:47:22;;;;;;;8.32;5.50;;;;;;;;;;10349009;28;20127;-89
2023/08/09 03:57:57;;;;;;;8.70;5.68;;;;;;;;;;10374890;28;20722;-88
2023/08/09 04:02:57;;;;;;;9.57;5.77;;;;;;;;;;10363166;28;20041;-87
2023/08/09 04:08:02;;;;;;;8.90;6.22;;;;;;;;;;10367840;22;20305;-88
2023/08/09 04:13:08;;;;;;;7.63;5.70;;;;;;;;;;10317053;28;20041;-88
2023/08/09 04:18:09;;;;;;;7.45;5.43;;;;;;;;;;10333486;28;20050;-87
2023/08/09 04:23:17;;;;;;;7.85;5.57;;;;;;;;;;10357670;28;20056;-89
2023/08/09 04:28:20;;;;;;;7.47;5.65;;;;;;;;;;10361155;28;20120;-88
2023/08/09 04:33:21;;;;;;;;;;;;;;;;;;10335929;28;20045;-86
2023/08/09 04:38:26;;;;;;;7.07;5.50;;;;;;;;;;10370172;28;19914;-86
2023/08/09 04:43:28;;;;;;;6.97;5.03;;;;;;;;;;10379973;28;20811;-84
2023/08/09 04:48:29;;;;;;;6.45;5.20;;;;;;;;;;10336924;28;20141;-84
2023/08/09 04:53:30;;;;;;;10.18;5.78;;;;;;;;;;10363055;28;20521;-84
2023/08/09 04:58:31;;;;;;;5.97;4.80;;;;;;;;;;10372150;28;20081;-83
2023/08/09 05:03:37;;;;;;;7.20;5.25;;;;;;;;;;10348894;28;20105;-85
2023/08/09 05:08:40;;;;;;;6.63;4.82;;;;;;;;;;10380308;28;20038;-85
2023/08/09 05:13:43;;;;;;;7.03;5.07;;;;;;;;;;10390243;28;20473;-89
2023/08/09 05:18:56;;;;;;;8.63;4.80;;;;;;;;;;10384754;28;20045;-88
2023/08/09 05:23:57;;;;;;;7.53;5.25;;;;;;;;;;10374996;28;20066;-86
2023/08/09 05:28:59;;;;;;;6.88;4.65;;;;;;;;;;10380582;28;20368;-86
2023/08/09 05:33:59;;;;;;;6.82;5.10;;;;;;;;;;10379150;28;20037;-84
2023/08/09 05:39:02;;;;;;;7.72;4.90;;;;;;;;;;10369694;28;20041;-84
2023/08/09 05:44:08;;;;;;;8.32;4.70;;;;;;;;;;10390367;28;20053;-83
2023/08/09 05:49:09;;;;;;;7.75;4.65;;;;;;;;;;10404775;28;20470;-84
2023/08/09 05:54:10;;;;;;;5.35;4.50;;;;;;;;;;10377329;28;20129;-86
2023/08/09 05:59:10;;;;;;;4.83;3.90;;;;;;;;;;10373006;28;20081;-85
2023/08/09 06:04:11;;;;;;;6.40;4.53;;;;;;;;;;10351795;28;20304;-86
2023/08/09 06:09:11;;;;;;;6.63;4.60;;;;;;;;;;10371238;28;20395;-86
2023/08/09 06:14:11;;;;;;;7.95;4.80;;;;;;;;;;10376864;28;20156;-87
2023/08/09 06:19:12;;;;;;;5.90;4.67;;;;;;;;;;10371737;28;20053;-88
2023/08/09 06:24:12;;;;;;;8.85;4.72;;;;;;;;;;10380491;28;20113;-85
2023/08/09 06:29:13;;;;;;;6.00;5.23;;;;;;;;;;10372934;28;20056;-84
2023/08/09 06:34:13;;;;;;;6.43;5.15;;;;;;;;;;10363234;28;20911;-84
2023/08/09 06:39:13;;;;;;;8.25;4.97;;;;;;;;;;10376655;28;20044;-85
2023/08/09 06:44:17;;;;;;;7.53;5.50;;;;;;;;;;10360651;28;20046;-84
2023/08/09 06:49:19;;;;;;;6.95;5.18;;;;;;;;;;10364781;28;20062;-85
2023/08/09 06:54:25;;;;;;;7.00;6.03;;;;;;;;;;10368859;28;20140;-88
2023/08/09 06:59:27;;;;;;;9.30;6.07;;;;;;;;;;10347321;28;20053;-88
2023/08/09 07:04:27;;;;;;;7.43;5.88;;;;;;;;;;10367543;28;20477;-87
2023/08/09 07:09:28;;;;;;;7.30;5.28;;;;;;;;;;10375848;28;20049;-87
2023/08/09 07:14:28;;;;;;;5.93;4.90;;;;;;;;;;10356904;28;20399;-88
2023/08/09 07:19:29;;;;;;;7.80;5.00;;;;;;;;;;10357466;28;20336;-90
2023/08/09 07:24:30;;;;;;;8.68;4.85;;;;;;;;;;10384465;28;20991;-88
2023/08/09 07:29:34;;;;;;;5.70;4.88;;;;;;;;;;10380946;28;20068;-86
2023/08/09 07:34:38;;;;;;;5.18;4.68;;;;;;;;;;10392589;28;20042;-88
2023/08/09 07:39:40;;;;;;;7.57;4.30;;;;;;;;;;10376496;28;20129;-90
2023/08/09 07:44:40;;;;;;;5.03;4.50;;;;;;;;;;10393760;28;20049;-89
2023/08/09 07:49:43;;;;;;;7.22;4.47;;;;;;;;;;10347630;28;20676;-88
2023/08/09 07:54:48;;;;;;;5.03;4.15;;;;;;;;;;10383847;28;20062;-88
2023/08/09 07:59:50;;;;;;;6.00;4.15;;;;;;;;;;10376280;28;20100;-88
2023/08/09 08:04:51;;;;;;;4.17;3.50;;;;;;;;;;10372531;28;20054;-88
2023/08/09 08:09:52;;;;;;;6.85;4.38;;;;;;;;;;10381063;28;20520;-89
2023/08/09 08:14:54;;;;;;;7.05;3.92;;;;;;;;;;10366080;28;20044;-87
2023/08/09 08:19:55;;;;;;;5.88;3.38;;;;;;;;;;10388341;28;20022;-87
2023/08/09 08:24:58;;;;;;;6.30;3.92;;;;;;;;;;10397439;28;20061;-85
2023/08/09 08:29:59;;;;;;;5.00;4.00;;;;;;;;;;10395797;28;20045;-87
2023/08/09 08:35:02;;;;;;;6.97;3.80;;;;;;;;;;10405485;28;20048;-87
2023/08/09 08:40:08;;;;;;;7.25;4.25;;;;;;;;;;10412105;28;20057;-88
2023/08/09 08:45:11;;;;;;;6.07;4.13;;;;;;;;;;10421090;28;20048;-87
2023/08/09 08:50:16;;;;;;;5.15;3.83;;;;;;;;;;10398049;28;20052;-86
2023/08/09 08:55:17;;;;;;;5.85;4.15;;;;;;;;;;10374185;28;20050;-88
2023/08/09 09:00:20;;;;;;;5.38;3.92;;;;;;;;;;10364042;28;20050;-88
2023/08/09 09:05:23;;;;;;;;;;;;;;;;;;10407133;28;20134;-90
2023/08/09 09:10:26;;;;;;;4.50;3.90;;;;;;;;;;10389867;28;20508;-88
2023/08/09 09:15:27;;;;;;;5.10;4.30;;;;;;;;;;10395132;28;20041;-88
2023/08/09 09:20:31;;;;;;;7.07;4.35;;;;;;;;;;10417042;28;20087;-89
2023/08/09 09:25:31;;;;;;;8.38;4.10;;;;;;;;;;10414957;28;20033;-87
2023/08/09 09:30:33;;;;;;;3.85;3.45;;;;;;;;;;10410009;28;20361;-88
2023/08/09 09:35:33;;;;;;;5.35;4.00;;;;;;;;;;10409155;28;20057;-85
2023/08/09 09:40:35;;;;;;;4.40;3.60;;;;;;;;;;10396965;28;20022;-86
2023/08/09 09:45:36;;;;;;;5.38;4.30;;;;;;;;;;10397505;28;20076;-88
2023/08/09 09:50:38;;;;;;;5.03;4.00;;;;;;;;;;10378313;28;20077;-88
2023/08/09 09:55:39;;;;;;;4.68;3.63;;;;;;;;;;10401830;28;20174;-86
2023/08/09 10:00:52;;;;;;;4.13;3.25;;;;;;;;;;10410485;28;20061;-87
2023/08/09 10:05:53;;;;;;;6.15;3.95;;;;;;;;;;10400654;28;20164;-85
2023/08/09 10:10:54;;;;;;;5.93;3.72;;;;;;;;;;10390082;28;20097;-84
2023/08/09 10:15:58;;;;;;;4.45;4.03;;;;;;;;;;10368997;28;20075;-84
2023/08/09 10:21:01;;;;;;;7.45;4.38;;;;;;;;;;10340151;28;20044;-83
2023/08/09 10:26:02;;;;;;;4.82;4.32;;;;;;;;;;10374788;28;20046;-85
2023/08/09 10:31:03;;;;;;;8.23;4.85;;;;;;;;;;10358436;28;20042;-82
2023/08/09 10:36:04;;;;;;;5.43;4.95;;;;;;;;;;10352111;28;20057;-81
2023/08/09 10:41:09;;;;;;;7.33;4.87;;;;;;;;;;10358569;28;20048;-87
2023/08/09 10:46:18;;;;;;;6.50;5.75;;;;;;;;;;10359775;28;20058;-84
2023/08/09 10:51:23;;;;;;;4.45;3.40;;;;;;;;;;10368557;28;20056;-85
2023/08/09 10:56:47;;;;;;;4.10;3.70;;;;;;;;;;10379407;28;20060;-86
2023/08/09 11:01:49;;;;;;;3.53;3.22;;;;;;;;;;10360727;28;20053;-86
2023/08/09 11:06:52;;;;;;;3.45;3.15;;;;;;;;;;10384251;28;20055;-84
2023/08/09 11:11:53;;;;;;;4.25;3.85;;;;;;;;;;10375198;28;20045;-85
2023/08/09 11:16:53;;;;;;;3.40;3.10;;;;;;;;;;10375124;28;20038;-88
2023/08/09 11:21:56;;;;;;;3.83;3.08;;;;;;;;;;10339222;28;20054;-87
2023/08/09 11:26:59;;;;;;;4.20;3.00;;;;;;;;;;10377893;28;20049;-86
2023/08/09 11:32:01;;;;;;;1.80;1.70;;;;;;;;;;10384064;28;20133;-85
2023/08/09 11:37:07;;;;;;;1.92;1.80;;;;;;;;;;10380202;28;20081;-87
2023/08/09 11:42:08;;;;;;;2.78;2.08;;;;;;;;;;10371862;28;20037;-87
2023/08/09 11:47:08;;;;;;;2.97;2.17;;;;;;;;;;10387390;28;20868;-85
2023/08/09 11:52:15;;;;;;;2.00;1.80;;;;;;;;;;10392810;28;20112;-88
2023/08/09 11:57:15;;;;;;;1.70;1.60;;;;;;;;;;10392254;28;20054;-84
2023/08/09 12:02:19;;;;;;;2.78;1.63;;;;;;;;;;10376239;28;20057;-86
2023/08/09 12:07:37;;;;;;;2.50;1.88;;;;;;;;;;10388583;28;20073;-85
2023/08/09 12:12:38;;;;;;;7.85;1.85;;;;;;;;;;10399776;28;20069;-84
2023/08/09 12:17:39;;;;;;;1.77;1.63;;;;;;;;;;10399253;28;20418;-91
2023/08/09 12:22:43;;;;;;;1.42;1.33;;;;;;;;;;10407976;28;20057;-87
2023/08/09 12:27:46;;;;;;;1.63;1.52;;;;;;;;;;10392770;28;20577;-86
2023/08/09 12:32:51;;;;;;;4.55;2.45;;;;;;;;;;10399743;28;20065;-86
2023/08/09 12:37:52;;;;;;;1.75;1.65;;;;;;;;;;10409039;28;20267;-88
2023/08/09 12:42:54;;;;;;;2.42;1.60;;;;;;;;;;10421272;28;20033;-87
2023/08/09 12:47:59;;;;;;;2.05;1.70;;;;;;;;;;10387603;28;20053;-86
2023/08/09 12:53:00;;;;;;;1.90;1.80;;;;;;;;;;10368432;28;20098;-87
2023/08/09 12:58:02;;;;;;;1.77;1.67;;;;;;;;;;10391072;28;20052;-85
2023/08/09 13:03:14;;;;;;;2.20;1.90;;;;;;;;;;10386928;28;20052;-87
2023/08/09 13:08:17;;;;;;;2.28;1.67;;;;;;;;;;10388544;28;20061;-88
2023/08/09 13:13:21;;;;;;;1.60;1.50;;;;;;;;;;10368779;28;20069;-87
2023/08/09 13:18:32;;;;;;;1.50;1.40;;;;;;;;;;10369963;28;20061;-91
2023/08/09 13:23:42;;;;;;;1.70;1.55;;;;;;;;;;10366267;28;20304;-89
2023/08/09 13:28:50;;;;;;;1.50;1.40;;;;;;;;;;10391560;28;20074;-91
2023/08/09 13:33:51;;;;;;;1.67;1.58;;;;;;;;;;10402582;28;20097;-88
2023/08/09 13:38:52;;;;;;;1.60;1.50;;;;;;;;;;10389592;28;20062;-88
2023/08/09 13:43:59;;;;;;;1.88;1.70;;;;;;;;;;10399818;28;20327;-90
2023/08/09 13:49:00;;;;;;;1.65;1.40;;;;;;;;;;10420312;28;20120;-89
2023/08/09 13:54:04;;;;;;;1.40;1.17;;;;;;;;;;10411809;28;20300;-89
2023/08/09 14:10:35;;;;;;;1.40;1.30;;;;;;;;;;10494311;22;20062;-90
2023/08/09 14:16:05;;;;;;;3.08;1.58;;;;;;;;;;10345484;28;20052;-89
2023/08/09 14:21:12;;;;;;;2.72;1.63;;;;;;;;;;10356336;28;20077;-89
2023/08/09 14:26:19;;;;;;;2.50;1.70;;;;;;;;;;10355085;28;20050;-89
2023/08/09 14:31:27;;;;;;;2.28;1.50;;;;;;;;;;10341445;28;20046;-90
2023/08/09 14:36:31;;;;;;;1.83;1.50;;;;;;;;;;10342869;28;20356;-90
2023/08/09 14:41:32;;;;;;;1.52;1.42;;;;;;;;;;10358769;28;20069;-89
2023/08/09 14:46:40;;;;;;;1.58;1.48;;;;;;;;;;10337451;28;20077;-89
2023/08/09 14:52:02;;;;;;;1.60;1.50;;;;;;;;;;10365087;28;20046;-88
2023/08/09 14:57:17;;;;;;;1.60;1.40;;;;;;;;;;10354131;28;20042;-90
2023/08/09 15:02:41;;;;;;;2.03;1.30;;;;;;;;;;10347687;28;20066;-89
2023/08/09 15:08:14;;;;;;;3.28;1.40;;;;;;;;;;10364666;28;20082;-91
2023/08/09 15:13:30;;;;;;;1.92;1.20;;;;;;;;;;10475170;22;20054;-89
2023/08/09 15:18:31;;;;;;;1.60;1.30;;;;;;;;;;10368404;28;20026;-89
2023/08/09 15:29:11;;;;;;;1.20;1.00;;;;;;;;;;10366545;28;20106;-88
2023/08/09 15:34:32;;;;;;;1.95;1.27;;;;;;;;;;10361212;28;20373;-90
2023/08/09 15:45:15;;;;;;;2.92;1.30;;;;;;;;;;10286724;28;20093;-92
2023/08/09 15:50:30;;;;;;;2.25;1.73;;;;;;;;;;10308815;28;20142;-91
2023/08/09 16:00:49;;;;;;;1.23;1.10;;;;;;;;;;10317761;28;20057;-90
2023/08/09 16:11:37;;;;;;;3.20;1.50;;;;;;;;;;10325179;28;20122;-91
2023/08/09 16:16:39;;;;;;;4.65;1.50;;;;;;;;;;10323167;28;20482;-90
2023/08/09 16:21:51;;;;;;;1.38;1.27;;;;;;;;;;10305043;28;20055;-89
2023/08/09 16:26:58;;;;;;;1.63;1.50;;;;;;;;;;10307904;28;20128;-91
2023/08/09 16:37:08;;;;;;;2.13;1.92;;;;;;;;;;10318867;28;21053;-89
2023/08/09 16:47:22;;;;;;;2.83;1.52;;;;;;;;;;10347377;28;20054;-91
2023/08/09 16:52:23;;;;;;;1.80;1.52;;;;;;;;;;10332641;28;20132;-90
2023/08/09 16:57:39;;;;;;;2.67;1.70;;;;;;;;;;10348764;28;20128;-89
2023/08/09 17:02:40;;;;;;;1.58;1.40;;;;;;;;;;10321317;28;20050;-90
2023/08/09 17:08:01;;;;;;;2.20;1.50;;;;;;;;;;10355971;28;20483;-90
2023/08/09 17:13:10;;;;;;;2.70;1.70;;;;;;;;;;10353489;28;20070;-89
2023/08/09 17:18:33;;;;;;;2.87;1.60;;;;;;;;;;10358976;28;20092;-90
2023/08/09 17:23:38;;;;;;;2.60;1.50;;;;;;;;;;10354737;28;20280;-90
2023/08/09 17:28:41;;;;;;;3.22;2.00;;;;;;;;;;10379704;28;20033;-89
2023/08/09 17:33:42;;;;;;;;;;;;;;;;;;10383349;28;20050;-89
2023/08/09 17:38:51;;;;;;;2.97;2.15;;;;;;;;;;10372806;28;19901;-88
2023/08/09 17:44:19;;;;;;;2.78;2.13;;;;;;;;;;10369546;28;20054;-89
2023/08/09 17:49:42;;;;;;;3.47;1.67;;;;;;;;;;10358944;28;20057;-90
2023/08/09 17:54:47;;;;;;;1.95;1.45;;;;;;;;;;10352928;28;20570;-89
2023/08/09 17:59:54;;;;;;;1.73;1.58;;;;;;;;;;10355496;28;20055;-89
2023/08/09 18:04:58;;;;;;;1.55;1.45;;;;;;;;;;10350110;28;20382;-89
2023/08/09 18:10:00;;;;;;;1.83;1.73;;;;;;;;;;10365218;28;20176;-90
2023/08/09 18:15:02;;;;;;;2.10;1.42;;;;;;;;;;10372790;28;20105;-87
2023/08/09 18:20:11;;;;;;;2.45;1.88;;;;;;;;;;10370629;28;20058;-88
2023/08/09 18:25:18;;;;;;;2.90;1.88;;;;;;;;;;10374038;28;20046;-88
2023/08/09 18:30:18;;;;;;;2.22;1.77;;;;;;;;;;10340525;28;20057;-88
2023/08/09 18:35:20;;;;;;;2.30;1.60;;;;;;;;;;10360259;28;20046;-87
2023/08/09 18:40:27;;;;;;;2.15;1.67;;;;;;;;;;10321227;28;20054;-87
2023/08/09 18:45:32;;;;;;;2.75;1.95;;;;;;;;;;10357051;28;20057;-88
2023/08/09 18:50:37;;;;;;;2.75;1.95;;;;;;;;;;10346096;28;20054;-88
2023/08/09 18:55:43;;;;;;;4.15;1.90;;;;;;;;;;10342970;28;20062;-88
2023/08/09 19:00:47;;;;;;;3.30;1.95;;;;;;;;;;10362743;28;20056;-90
2023/08/09 19:05:52;;;;;;;3.10;2.47;;;;;;;;;;10367378;28;20054;-90
2023/08/09 19:11:03;;;;;;;;;;;;;;;;;;;;;
2023/08/09 19:16:28;;;;;;;3.47;2.08;;;;;;;;;;10357712;28;20289;-88
2023/08/09 19:21:33;;;;;;;3.05;2.05;;;;;;;;;;10369399;28;20050;-89
2023/08/09 19:26:34;;;;;;;2.30;2.05;;;;;;;;;;10376764;28;20050;-88
2023/08/09 19:31:37;;;;;;;3.15;2.30;;;;;;;;;;10385000;28;20065;-90
2023/08/09 19:36:59;;;;;;;3.35;2.53;;;;;;;;;;10370635;28;20117;-87
2023/08/09 19:42:01;;;;;;;2.35;2.15;;;;;;;;;;10372739;28;20319;-89
2023/08/09 19:47:03;;;;;;;2.75;2.45;;;;;;;;;;10363283;28;20169;-86
2023/08/09 19:52:10;;;;;;;2.92;2.40;;;;;;;;;;10514682;23;20036;-88
2023/08/09 19:57:12;;;;;;;3.17;2.65;;;;;;;;;;10369388;28;20046;-86
2023/08/09 20:02:12;;;;;;;5.07;3.30;;;;;;;;;;10335766;28;20118;-86
2023/08/09 20:07:14;;;;;;;4.25;3.25;;;;;;;;;;10319112;28;20617;-87
2023/08/09 20:12:20;;;;;;;4.25;3.35;;;;;;;;;;10294154;28;20051;-87
2023/08/09 20:17:28;;;;;;;5.78;3.45;;;;;;;;;;10289922;28;20061;-87
2023/08/09 20:22:30;;;;;;;4.65;2.95;;;;;;;;;;10315086;28;20054;-87
2023/08/09 20:27:31;;;;;;;3.13;2.77;;;;;;;;;;10302754;28;20063;-87
2023/08/09 20:32:32;;;;;;;3.75;2.75;;;;;;;;;;10301193;28;20046;-87
2023/08/09 20:37:43;;;;;;;4.40;2.97;;;;;;;;;;10312391;28;20031;-87
2023/08/09 20:43:07;;;;;;;4.38;3.28;;;;;;;;;;10303730;28;20074;-89
2023/08/09 20:48:11;;;;;;;3.75;2.70;;;;;;;;;;10344737;28;20061;-89
2023/08/09 20:53:16;;;;;;;4.32;3.28;;;;;;;;;;10314524;28;20074;-88
2023/08/09 20:58:21;;;;;;;5.10;3.95;;;;;;;;;;10314276;28;20058;-86
2023/08/09 21:03:27;;;;;;;3.80;3.30;;;;;;;;;;10326662;28;20034;-89
2023/08/09 21:08:37;;;;;;;4.25;3.72;;;;;;;;;;10308100;28;20066;-87
2023/08/09 21:13:39;;;;;;;4.57;3.28;;;;;;;;;;10316117;28;20117;-88
2023/08/09 21:18:44;;;;;;;4.85;3.60;;;;;;;;;;10301411;28;20074;-88
2023/08/09 21:23:44;;;;;;;4.97;3.50;;;;;;;;;;10312294;28;20038;-88
2023/08/09 21:28:45;;;;;;;5.82;4.25;;;;;;;;;;10300576;28;20054;-89
2023/08/09 21:33:48;;;;;;;3.53;3.22;;;;;;;;;;10305514;28;20243;-87
2023/08/09 21:39:22;;;;;;;6.15;4.05;;;;;;;;;;10274952;28;20134;-88
2023/08/09 21:44:24;;;;;;;3.88;3.40;;;;;;;;;;10295779;28;20087;-87
2023/08/09 21:49:25;;;;;;;5.90;4.53;;;;;;;;;;10294752;28;20051;-87
2023/08/09 21:54:31;;;;;;;5.55;4.68;;;;;;;;;;10273774;28;20039;-87
2023/08/09 21:59:39;;;;;;;5.00;4.45;;;;;;;;;;10282538;28;20842;-90
2023/08/09 22:04:41;;;;;;;5.47;3.43;;;;;;;;;;10271996;28;20054;-88
2023/08/09 22:09:42;;;;;;;5.77;4.37;;;;;;;;;;10297735;28;20073;-89
2023/08/09 22:14:44;;;;;;;3.55;3.13;;;;;;;;;;10302645;28;20594;-89
2023/08/09 22:19:44;;;;;;;8.65;3.80;;;;;;;;;;10302371;28;20054;-87
2023/08/09 22:24:46;;;;;;;6.82;4.07;;;;;;;;;;10189401;28;3502097;-87
2023/08/09 22:29:47;;;;;;;4.80;3.75;;;;;;;;;;10313117;28;20050;-86
2023/08/09 22:34:54;;;;;;;5.65;3.42;;;;;;;;;;10298469;28;20047;-87
2023/08/09 22:40:00;;;;;;;5.82;3.50;;;;;;;;;;10280441;28;20047;-87
2023/08/09 22:45:01;;;;;;;4.82;3.42;;;;;;;;;;10254479;28;20050;-87
2023/08/09 22:50:02;;;;;;;4.00;3.60;;;;;;;;;;10293726;28;20050;-87
2023/08/09 22:55:09;;;;;;;3.70;3.22;;;;;;;;;;10278756;28;20058;-88
2023/08/09 23:00:14;;;;;;;5.25;3.42;;;;;;;;;;10287214;28;20038;-88
2023/08/09 23:05:23;;;;;;;5.40;3.77;;;;;;;;;;10291756;28;20062;-88
2023/08/09 23:10:25;;;;;;;5.18;3.20;;;;;;;;;;10294903;28;20596;-87
2023/08/09 23:15:32;;;;;;;6.25;3.17;;;;;;;;;;10288350;28;20087;-88
2023/08/09 23:20:38;;;;;;;6.18;3.15;;;;;;;;;;10289960;28;20574;-90
2023/08/09 23:25:53;;;;;;;4.70;3.30;;;;;;;;;;10332750;28;20051;-89
2023/08/09 23:30:59;;;;;;;4.25;3.25;;;;;;;;;;10332662;28;20124;-88
2023/08/09 23:36:02;;;;;;;4.95;3.47;;;;;;;;;;10280890;28;20092;-89
2023/08/09 23:41:13;;;;;;;3.63;3.05;;;;;;;;;;10277287;28;20046;-88
2023/08/09 23:46:16;;;;;;;4.50;3.30;;;;;;;;;;10273809;28;20078;-88
2023/08/09 23:51:23;;;;;;;5.50;3.60;;;;;;;;;;10287507;28;20121;-88
2023/08/09 23:56:25;;;;;;;4.40;3.20;;;;;;;;;;10288722;28;20058;-89
